Time;durP1;ratioP1;P1;durP2;ratioP2;P2;SDS_P1;SDS_P2;PMS_P1;PMS_P2;Temp;Humidity;BMP_temperature;BMP_pressure;BME280_temperature;BME280_humidity;BME280_pressure;Samples;Min_cycle;Max_cycle;Signal;HPM_P1;HPM_P2
2022/05/30 00:00:08;;;;;;;8.13;1.65;;;;;;;11.14;65.82;101140.94;3570530;40;20140;-63
2022/05/30 00:02:34;;;;;;;8.00;1.77;;;;;;;10.97;65.89;101106.06;3570641;40;20056;-63
2022/05/30 00:05:01;;;;;;;6.07;1.83;;;;;;;11.07;66.18;101132.34;3570651;40;20426;-63
2022/05/30 00:07:27;;;;;;;6.68;2.00;;;;;;;11.02;66.46;101129.06;3570975;40;20049;-63
2022/05/30 00:09:54;;;;;;;9.88;1.90;;;;;;;11.00;66.16;101130.09;3569425;40;20094;-63
2022/05/30 00:12:20;;;;;;;11.18;2.08;;;;;;;10.71;66.16;101076.19;3571780;40;20049;-63
2022/05/30 00:14:46;;;;;;;7.53;1.60;;;;;;;10.93;66.33;101129.59;3568502;40;20047;-63
2022/05/30 00:17:12;;;;;;;5.53;1.70;;;;;;;10.90;66.63;101122.56;3572265;40;20411;-63
2022/05/30 00:19:39;;;;;;;7.22;1.70;;;;;;;10.79;66.74;101111.59;3570626;40;20295;-63
2022/05/30 00:22:11;;;;;;;5.38;1.90;;;;;;;10.89;66.55;101128.06;3572189;40;21182;-63
2022/05/30 00:24:37;;;;;;;6.38;1.70;;;;;;;10.86;67.03;101126.41;3572774;40;20126;-62
2022/05/30 00:27:04;;;;;;;9.73;2.00;;;;;;;10.86;67.21;101126.41;3572185;40;20186;-63
2022/05/30 00:29:30;;;;;;;6.43;1.58;;;;;;;10.88;67.46;101129.88;3572560;40;20056;-62
2022/05/30 00:31:57;;;;;;;10.15;1.92;;;;;;;10.88;67.69;101127.19;3570845;40;20053;-63
2022/05/30 00:34:24;;;;;;;4.72;1.58;;;;;;;10.86;67.59;101123.72;3571044;40;20096;-63
2022/05/30 00:36:50;;;;;;;6.22;1.90;;;;;;;10.79;67.94;101111.59;3569112;40;20387;-63
2022/05/30 00:39:16;;;;;;;8.48;2.25;;;;;;;10.75;68.24;101104.66;3570701;40;20064;-63
2022/05/30 00:41:42;;;;;;;9.52;1.95;;;;;;;10.80;68.12;101121.38;3568534;40;20052;-62
2022/05/30 00:44:07;;;;;;;9.57;2.58;;;;;;;10.82;67.75;101121.31;3570779;40;20097;-63
2022/05/30 00:46:33;;;;;;;6.22;2.22;;;;;;;10.80;68.27;101115.13;3571585;40;20113;-63
2022/05/30 00:49:05;;;;;;;7.72;2.20;;;;;;;10.67;68.01;101090.78;3569720;40;20096;-63
2022/05/30 00:51:42;;;;;;;7.38;1.95;;;;;;;10.78;68.58;101112.53;3570598;40;20065;-63
2022/05/30 00:54:16;;;;;;;7.30;2.38;;;;;;;10.79;68.62;101111.59;3570671;40;20056;-63
2022/05/30 00:56:49;;;;;;;;;;;;;;;10.78;68.84;101109.84;3569673;40;20056;-63
2022/05/30 00:59:14;;;;;;;7.78;1.90;;;;;;;10.77;68.17;101112.63;3570329;40;19940;-64
2022/05/30 01:01:40;;;;;;;6.07;2.10;;;;;;;10.72;69.26;101107.53;3568991;40;20304;-63
2022/05/30 01:07:00;;;;;;;7.30;1.65;;;;;;;10.66;69.16;101100.69;3571134;40;20126;-63
2022/05/30 01:09:33;;;;;;;9.68;2.55;;;;;;;10.67;68.40;101107.78;3569250;40;20100;-63
2022/05/30 01:12:12;;;;;;;7.45;2.00;;;;;;;10.67;69.26;101106.91;3561396;40;20269;-63
2022/05/30 01:14:42;;;;;;;6.45;2.28;;;;;;;10.66;69.84;101108.75;3569985;40;20060;-63
2022/05/30 01:17:15;;;;;;;4.70;2.47;;;;;;;10.68;68.79;101103.25;3569968;40;20142;-63
2022/05/30 01:20:03;;;;;;;5.18;2.15;;;;;;;10.61;69.42;101108.13;3569285;40;20048;-63
2022/05/30 01:22:57;;;;;;;8.43;2.10;;;;;;;10.59;69.92;101095.72;3570144;40;20378;-62
2022/05/30 01:25:52;;;;;;;;;;;;;;;10.57;69.56;101101.22;3571362;40;20060;-63
2022/05/30 01:28:48;;;;;;;7.63;2.60;;;;;;;10.54;69.83;101100.50;3569972;40;20191;-63
2022/05/30 01:31:16;;;;;;;10.52;2.70;;;;;;;10.50;69.78;101104.31;3570267;40;20059;-63
2022/05/30 01:33:42;;;;;;;8.13;2.85;;;;;;;10.52;70.02;101099.72;3569690;40;20056;-63
2022/05/30 01:36:08;;;;;;;9.60;2.40;;;;;;;10.52;70.33;101097.03;3573059;40;20073;-63
2022/05/30 01:38:34;;;;;;;6.68;2.58;;;;;;;10.48;70.52;101095.50;3572705;40;20299;-63
2022/05/30 01:41:00;;;;;;;7.60;2.17;;;;;;;10.45;70.97;101092.00;3572711;40;20384;-63
2022/05/30 01:43:27;;;;;;;12.35;2.65;;;;;;;10.43;70.42;101091.25;3572206;40;20067;-63
2022/05/30 01:45:53;;;;;;;10.75;2.75;;;;;;;10.35;70.63;101072.00;3605083;22;20067;-63
2022/05/30 01:48:18;;;;;;;8.65;2.53;;;;;;;10.41;70.54;101084.22;3577984;40;20064;-65
2022/05/30 01:50:45;;;;;;;11.85;2.78;;;;;;;10.41;70.92;101079.72;3578951;40;20058;-64
2022/05/30 01:53:12;;;;;;;7.45;2.40;;;;;;;10.42;71.27;101080.56;3579146;40;20068;-63
2022/05/30 01:55:38;;;;;;;8.45;2.40;;;;;;;10.40;71.38;101082.47;3579556;40;20387;-64
2022/05/30 01:58:05;;;;;;;7.13;2.28;;;;;;;10.36;70.85;101076.41;3578685;40;20421;-64
2022/05/30 02:00:33;;;;;;;6.30;2.10;;;;;;;10.40;70.86;101075.31;3580681;40;20589;-63
2022/05/30 02:02:59;;;;;;;8.05;2.55;;;;;;;10.40;71.75;101079.78;3579471;40;20056;-64
2022/05/30 02:05:25;;;;;;;10.63;2.25;;;;;;;10.40;71.71;101080.69;3578887;40;20303;-64
2022/05/30 02:07:51;;;;;;;12.98;3.30;;;;;;;10.40;71.04;101077.09;3578221;40;20075;-63
2022/05/30 02:10:16;;;;;;;12.60;3.08;;;;;;;10.37;70.90;101078.16;3581162;40;20060;-64
2022/05/30 02:12:42;;;;;;;9.45;2.53;;;;;;;10.40;71.79;101083.38;3580666;40;20093;-64
2022/05/30 02:15:08;;;;;;;7.30;2.25;;;;;;;10.39;71.28;101076.22;3580359;40;20090;-64
2022/05/30 02:17:37;;;;;;;9.63;2.70;;;;;;;10.36;71.91;101068.34;3582731;40;20126;-63
2022/05/30 02:20:03;;;;;;;5.68;3.33;;;;;;;10.43;72.54;101077.81;3581102;40;20047;-65
2022/05/30 02:22:29;;;;;;;10.40;3.38;;;;;;;10.44;71.91;101076.84;3579032;40;20060;-65
2022/05/30 02:24:56;;;;;;;7.90;2.92;;;;;;;10.42;72.45;101073.38;3575105;40;20318;-65
2022/05/30 02:27:22;;;;;;;9.50;2.80;;;;;;;10.42;72.62;101077.88;3586250;40;20423;-64
2022/05/30 02:29:48;;;;;;;9.43;3.15;;;;;;;10.41;71.82;101078.84;3578140;40;20351;-64
2022/05/30 02:32:14;;;;;;;7.65;3.58;;;;;;;10.41;72.79;101074.34;3580199;40;20055;-64
2022/05/30 02:37:25;;;;;;;10.20;3.67;;;;;;;10.38;72.67;101077.19;3579467;40;20124;-64
2022/05/30 02:39:50;;;;;;;10.80;4.00;;;;;;;10.36;73.38;101068.34;3579331;40;20403;-64
2022/05/30 02:42:16;;;;;;;7.85;3.75;;;;;;;10.33;73.26;101071.22;3578082;40;20125;-64
2022/05/30 02:44:42;;;;;;;10.52;3.72;;;;;;;10.33;73.67;101064.97;3579078;40;20403;-64
2022/05/30 02:47:07;;;;;;;12.68;4.38;;;;;;;10.32;73.03;101068.63;3578689;40;20064;-64
2022/05/30 02:49:33;;;;;;;10.70;4.47;;;;;;;10.30;73.67;101066.00;3579079;40;20403;-64
2022/05/30 02:51:58;;;;;;;11.48;4.18;;;;;;;10.27;74.23;101066.19;3577379;40;20056;-64
2022/05/30 02:54:26;;;;;;;11.98;4.13;;;;;;;10.24;73.59;101066.31;3578495;40;20100;-64
2022/05/30 02:56:56;;;;;;;10.77;4.55;;;;;;;10.26;73.76;101069.84;3579569;40;20072;-64
2022/05/30 02:59:24;;;;;;;14.65;5.22;;;;;;;10.23;74.21;101064.59;3578204;40;20368;-63
2022/05/30 03:01:50;;;;;;;16.33;4.97;;;;;;;10.17;74.30;101068.50;3577931;40;20064;-63
2022/05/30 03:04:17;;;;;;;10.25;5.00;;;;;;;10.13;75.00;101068.75;3579174;40;20477;-64
2022/05/30 03:06:44;;;;;;;7.28;4.75;;;;;;;10.00;74.18;101053.34;3578387;40;20100;-64
2022/05/30 03:09:12;;;;;;;12.35;5.55;;;;;;;10.09;75.16;101069.91;3578141;40;20068;-64
2022/05/30 03:11:38;;;;;;;14.25;5.82;;;;;;;10.07;75.03;101080.72;3578671;40;20359;-64
2022/05/30 03:14:04;;;;;;;16.58;5.85;;;;;;;10.05;75.01;101077.22;3580849;40;20064;-64
2022/05/30 03:16:30;;;;;;;11.55;6.00;;;;;;;10.03;74.47;101078.28;3580265;40;20059;-64
2022/05/30 03:18:56;;;;;;;12.93;6.00;;;;;;;9.99;74.68;101070.41;3581467;40;20059;-63
2022/05/30 03:21:22;;;;;;;12.15;5.40;;;;;;;9.90;75.43;101062.00;3579929;40;20060;-66
2022/05/30 03:23:48;;;;;;;10.63;5.57;;;;;;;9.96;74.87;101075.94;3579330;40;21515;-64
2022/05/30 03:26:16;;;;;;;14.38;6.45;;;;;;;9.93;74.99;101083.31;3581870;40;20097;-64
2022/05/30 03:28:42;;;;;;;9.23;5.88;;;;;;;9.70;75.35;101052.31;3579527;40;20066;-63
2022/05/30 03:31:08;;;;;;;13.43;6.20;;;;;;;9.85;76.12;101086.41;3579398;40;20056;-65
2022/05/30 03:33:39;;;;;;;14.93;6.22;;;;;;;9.84;76.15;101081.13;3581967;40;20103;-65
2022/05/30 03:36:26;;;;;;;12.32;5.95;;;;;;;9.77;76.14;101073.41;3578977;40;20116;-65
2022/05/30 03:38:52;;;;;;;11.65;5.85;;;;;;;9.82;75.44;101083.88;3580538;40;20058;-65
2022/05/30 03:41:18;;;;;;;12.88;5.93;;;;;;;9.68;76.20;101064.97;3580883;40;20052;-64
2022/05/30 03:43:43;;;;;;;11.27;5.88;;;;;;;9.77;75.31;101094.00;3580442;40;20052;-64
2022/05/30 03:46:09;;;;;;;9.10;5.95;;;;;;;9.74;75.87;101099.56;3577816;40;20090;-66
2022/05/30 03:48:35;;;;;;;13.50;5.53;;;;;;;9.72;75.85;101101.44;3582833;40;20056;-64
2022/05/30 03:51:07;;;;;;;11.75;5.57;;;;;;;9.74;76.48;101099.56;3578913;40;20155;-64
2022/05/30 03:53:32;;;;;;;11.50;5.93;;;;;;;9.73;76.34;101092.44;3580074;40;20080;-65
2022/05/30 03:55:58;;;;;;;11.35;6.13;;;;;;;9.70;75.93;101097.97;3579033;40;20288;-65
2022/05/30 03:58:23;;;;;;;11.07;5.88;;;;;;;9.68;75.72;101099.88;3579153;40;20064;-65
2022/05/30 04:00:49;;;;;;;15.30;7.07;;;;;;;9.71;76.16;101105.94;3581320;40;20059;-63
2022/05/30 04:03:14;;;;;;;14.13;6.15;;;;;;;9.74;76.56;101095.03;3581707;40;20048;-63
2022/05/30 04:05:40;;;;;;;13.40;6.00;;;;;;;9.75;75.85;101098.59;3581584;40;20125;-64
2022/05/30 04:08:06;;;;;;;11.68;5.85;;;;;;;9.74;75.96;101088.81;3579337;40;20103;-63
2022/05/30 04:10:32;;;;;;;20.30;7.00;;;;;;;9.67;76.01;101073.97;3579573;40;20062;-63
2022/05/30 04:13:06;;;;;;;12.15;5.95;;;;;;;9.87;75.79;101092.56;3579681;40;20121;-63
2022/05/30 04:15:32;;;;;;;12.10;5.93;;;;;;;9.82;75.93;101086.56;3580833;40;20144;-64
2022/05/30 04:17:58;;;;;;;12.63;6.03;;;;;;;9.82;75.95;101086.56;3579792;40;20068;-64
2022/05/30 04:20:24;;;;;;;12.93;6.35;;;;;;;9.79;75.33;101081.34;3579994;40;20395;-63
2022/05/30 04:22:50;;;;;;;14.80;6.55;;;;;;;9.76;75.68;101077.00;3579714;40;20082;-63
2022/05/30 04:25:16;;;;;;;15.73;6.53;;;;;;;9.69;75.76;101059.50;3579943;40;20310;-63
2022/05/30 04:27:41;;;;;;;13.35;6.07;;;;;;;9.86;76.33;101080.06;3578747;40;20268;-64
2022/05/30 04:30:09;;;;;;;15.07;6.55;;;;;;;9.89;75.79;101082.56;3579420;40;20053;-64
2022/05/30 04:32:36;;;;;;;10.90;6.35;;;;;;;9.90;75.98;101089.72;3580342;40;20104;-63
2022/05/30 04:35:03;;;;;;;11.43;6.43;;;;;;;9.89;74.99;101087.94;3580164;40;20405;-63
2022/05/30 04:37:30;;;;;;;15.23;6.35;;;;;;;9.90;75.12;101088.84;3580017;40;20055;-64
2022/05/30 04:39:55;;;;;;;13.45;6.88;;;;;;;9.85;75.01;101090.91;3577561;40;20266;-63
2022/05/30 04:42:21;;;;;;;16.55;6.70;;;;;;;9.89;74.81;101093.31;3578915;40;20379;-64
2022/05/30 04:44:47;;;;;;;13.95;6.57;;;;;;;9.91;74.85;101091.44;3587580;39;20337;-62
2022/05/30 04:47:12;;;;;;;14.10;6.35;;;;;;;9.90;75.73;101094.22;3580363;40;20121;-63
2022/05/30 04:49:39;;;;;;;12.15;6.38;;;;;;;9.86;74.56;101098.84;3581132;40;20294;-63
2022/05/30 04:52:06;;;;;;;13.82;6.25;;;;;;;9.88;75.10;101106.84;3579992;40;20060;-65
2022/05/30 04:54:31;;;;;;;14.45;6.85;;;;;;;9.85;75.02;101104.31;3580177;40;20048;-64
2022/05/30 04:56:58;;;;;;;15.45;6.95;;;;;;;9.84;75.05;101106.16;3578519;40;20063;-63
2022/05/30 04:59:25;;;;;;;15.05;6.88;;;;;;;9.86;74.61;101112.28;3578310;40;20084;-64
2022/05/30 05:01:50;;;;;;;14.25;6.97;;;;;;;9.83;74.76;101109.78;3578376;40;20088;-64
2022/05/30 05:04:16;;;;;;;16.65;6.82;;;;;;;9.84;75.97;101111.53;3579611;40;20499;-63
2022/05/30 05:06:43;;;;;;;13.18;7.28;;;;;;;9.69;75.58;101090.88;3579399;40;20067;-63
2022/05/30 05:09:17;;;;;;;14.13;6.72;;;;;;;9.84;75.41;101105.28;3579391;40;20064;-64
2022/05/30 05:11:46;;;;;;;12.70;6.68;;;;;;;9.84;75.48;101108.84;3581174;40;20052;-63
2022/05/30 05:14:13;;;;;;;16.00;7.03;;;;;;;9.89;74.83;101106.75;3579211;40;20052;-63
2022/05/30 05:16:39;;;;;;;15.57;7.68;;;;;;;9.93;75.89;101115.53;3579607;40;20486;-64
2022/05/30 05:19:06;;;;;;;15.50;6.43;;;;;;;9.98;74.75;101111.63;3579095;40;20072;-65
2022/05/30 05:21:39;;;;;;;15.35;6.80;;;;;;;10.08;75.33;101108.44;3590107;39;20056;-63
2022/05/30 05:24:07;;;;;;;16.15;6.05;;;;;;;10.18;75.29;101115.03;3580282;40;20064;-63
2022/05/30 05:26:34;;;;;;;12.82;7.20;;;;;;;10.32;74.85;101106.25;3581048;40;20052;-63
2022/05/30 05:29:00;;;;;;;17.55;6.72;;;;;;;10.42;75.26;101108.31;3579930;40;20184;-64
2022/05/30 05:31:32;;;;;;;11.75;6.30;;;;;;;10.57;74.55;101116.47;3580234;40;20414;-65
2022/05/30 05:33:59;;;;;;;13.25;5.53;;;;;;;10.51;73.94;101082.75;3578184;40;20054;-64
2022/05/30 05:36:30;;;;;;;14.20;5.93;;;;;;;10.81;72.23;101119.53;3578433;40;20050;-64
2022/05/30 05:38:55;;;;;;;15.48;6.03;;;;;;;10.73;71.40;101094.94;3579252;40;20121;-63
2022/05/30 05:41:21;;;;;;;13.27;5.70;;;;;;;10.90;71.72;101119.88;3580130;40;20056;-63
2022/05/30 05:43:48;;;;;;;12.73;5.78;;;;;;;10.96;71.06;101128.56;3579352;40;20126;-64
2022/05/30 05:46:19;;;;;;;9.15;4.65;;;;;;;11.04;71.12;101129.84;3579002;40;20432;-64
2022/05/30 05:48:44;;;;;;;13.30;4.95;;;;;;;11.09;69.52;101126.88;3579114;40;20280;-64
2022/05/30 05:51:13;;;;;;;8.93;4.13;;;;;;;11.11;69.37;101127.66;3577667;40;20059;-64
2022/05/30 05:53:40;;;;;;;10.00;4.30;;;;;;;11.20;68.58;101132.50;3587426;40;20157;-65
2022/05/30 05:56:19;;;;;;;11.07;3.67;;;;;;;11.24;67.65;101128.66;3577886;40;20048;-63
2022/05/30 05:58:45;;;;;;;10.55;4.07;;;;;;;11.28;67.46;101130.19;3579631;40;20056;-64
2022/05/30 06:01:17;;;;;;;12.27;4.03;;;;;;;11.33;67.40;101129.94;3579192;40;20060;-64
2022/05/30 06:03:43;;;;;;;9.30;3.83;;;;;;;11.38;67.05;101139.47;3578478;40;20070;-63
2022/05/30 06:06:08;;;;;;;12.82;4.18;;;;;;;11.48;66.39;101136.19;3578523;40;20048;-63
2022/05/30 06:08:35;;;;;;;8.80;3.65;;;;;;;11.46;66.12;101111.22;3585710;40;20048;-62
2022/05/30 06:11:05;;;;;;;9.40;3.28;;;;;;;11.74;64.76;101137.31;3577810;40;20061;-62
2022/05/30 06:13:31;;;;;;;11.18;3.10;;;;;;;11.91;64.25;101144.38;3579798;40;20052;-62
2022/05/30 06:15:57;;;;;;;9.50;3.00;;;;;;;12.05;62.11;101147.94;3580506;40;20063;-62
2022/05/30 06:18:22;;;;;;;7.65;2.70;;;;;;;12.21;61.44;101131.69;3578810;40;20310;-61
2022/05/30 06:20:48;;;;;;;10.02;3.65;;;;;;;12.39;61.89;101129.59;3577308;40;20056;-62
2022/05/30 06:23:13;;;;;;;11.48;3.17;;;;;;;12.55;62.06;101133.03;3580202;40;20056;-62
2022/05/30 06:25:39;;;;;;;9.52;3.47;;;;;;;12.67;60.26;101128.69;3579549;40;20059;-62
2022/05/30 06:28:05;;;;;;;5.07;1.77;;;;;;;12.76;58.93;101132.59;3579176;40;20056;-62
2022/05/30 06:30:30;;;;;;;4.90;2.10;;;;;;;12.91;59.11;101137.00;3581133;40;20411;-63
2022/05/30 06:32:56;;;;;;;6.72;2.50;;;;;;;13.09;58.43;101136.72;3578827;40;20051;-63
2022/05/30 06:35:21;;;;;;;7.05;2.03;;;;;;;13.23;57.86;101136.66;3578609;40;20072;-63
2022/05/30 06:37:47;;;;;;;6.90;1.90;;;;;;;13.37;56.90;101133.91;3579771;40;20056;-64
2022/05/30 06:40:13;;;;;;;5.97;1.90;;;;;;;13.53;54.84;101139.09;3577149;40;20049;-64
2022/05/30 06:42:38;;;;;;;4.35;1.80;;;;;;;13.73;54.09;101139.56;3580385;40;20082;-62
2022/05/30 06:45:05;;;;;;;3.97;1.58;;;;;;;13.86;53.86;101130.50;3579863;40;20174;-62
2022/05/30 06:47:30;;;;;;;10.40;2.28;;;;;;;13.99;53.16;101138.59;3585778;40;20056;-63
2022/05/30 06:49:56;;;;;;;6.65;1.58;;;;;;;14.12;53.99;101136.72;3580919;40;20067;-63
2022/05/30 06:52:21;;;;;;;7.03;1.67;;;;;;;14.27;52.91;101144.69;3581857;40;20063;-63
2022/05/30 06:54:47;;;;;;;6.55;1.63;;;;;;;14.36;51.97;101144.91;3581045;40;20306;-62
2022/05/30 06:59:57;;;;;;;3.30;1.40;;;;;;;14.71;51.38;101143.31;3580789;40;20056;-63
2022/05/30 07:02:22;;;;;;;4.30;1.40;;;;;;;14.85;50.26;101144.03;3582288;40;20060;-63
2022/05/30 07:04:48;;;;;;;4.38;1.67;;;;;;;14.96;48.71;101150.47;3579500;40;20060;-62
2022/05/30 07:07:14;;;;;;;5.15;1.90;;;;;;;14.76;49.58;101146.56;3580850;40;20273;-62
2022/05/30 07:09:40;;;;;;;5.05;2.47;;;;;;;14.54;51.05;101136.47;3581628;40;20060;-62
2022/05/30 07:12:09;;;;;;;6.00;2.00;;;;;;;14.44;51.35;101147.06;3579213;40;20067;-62
2022/05/30 07:14:35;;;;;;;4.78;1.80;;;;;;;14.30;52.36;101139.06;3581000;40;20060;-63
2022/05/30 07:17:01;;;;;;;6.00;2.10;;;;;;;14.50;51.64;101143.06;3579240;40;20327;-62
2022/05/30 07:19:26;;;;;;;7.45;1.83;;;;;;;14.74;51.32;101140.38;3580451;40;20052;-61
2022/05/30 07:21:52;;;;;;;6.40;1.98;;;;;;;14.79;51.11;101140.94;3580448;40;20404;-62
2022/05/30 07:24:17;;;;;;;4.70;1.50;;;;;;;14.96;49.71;101134.25;3581993;40;20049;-61
2022/05/30 07:26:44;;;;;;;5.28;1.40;;;;;;;15.31;49.54;101142.38;3578887;40;20160;-62
2022/05/30 07:29:10;;;;;;;6.28;1.20;;;;;;;15.51;48.41;101152.56;3580100;40;20049;-62
2022/05/30 07:31:36;;;;;;;5.07;1.45;;;;;;;15.37;46.93;101149.19;3581482;40;20044;-62
2022/05/30 07:34:01;;;;;;;5.78;1.48;;;;;;;15.15;47.52;101149.97;3578307;40;20049;-62
2022/05/30 07:36:31;;;;;;;4.25;1.38;;;;;;;15.13;48.32;101150.09;3582390;40;20063;-63
2022/05/30 07:38:57;;;;;;;6.60;1.60;;;;;;;15.03;49.01;101149.91;3580288;40;20057;-63
2022/05/30 07:41:25;;;;;;;5.43;1.75;;;;;;;14.91;48.58;101148.13;3580940;40;20060;-63
2022/05/30 07:43:51;;;;;;;4.85;1.50;;;;;;;14.76;48.05;101142.00;3579943;40;20064;-63
2022/05/30 07:48:45;;;;;;;2.85;1.10;;;;;;;14.47;47.05;101149.53;3561578;40;20053;-65
2022/05/30 07:51:14;;;;;;;5.35;1.23;;;;;;;14.15;49.04;101106.78;3567666;40;20123;-65
2022/05/30 07:53:42;;;;;;;6.00;1.58;;;;;;;14.39;47.58;101143.81;3570333;40;20118;-65
2022/05/30 07:56:13;;;;;;;3.33;1.10;;;;;;;14.42;47.55;101140.88;3568213;40;20053;-65
2022/05/30 07:58:39;;;;;;;2.65;0.77;;;;;;;14.42;48.38;101137.31;3560614;40;20147;-66
2022/05/30 08:01:12;;;;;;;2.35;0.85;;;;;;;14.38;48.51;101137.56;3560965;40;20092;-65
2022/05/30 08:03:38;;;;;;;4.45;1.00;;;;;;;14.36;49.84;101135.94;3560530;40;20089;-65
2022/05/30 08:06:08;;;;;;;3.63;1.48;;;;;;;14.31;46.84;101138.13;3561735;40;20065;-65
2022/05/30 08:08:34;;;;;;;3.70;1.10;;;;;;;14.26;47.29;101133.03;3559602;40;20049;-65
2022/05/30 08:11:00;;;;;;;3.10;1.40;;;;;;;14.21;48.63;101139.72;3559952;40;20316;-66
2022/05/30 08:13:25;;;;;;;6.57;1.23;;;;;;;14.11;48.53;101139.53;3557803;40;20065;-65
2022/05/30 08:15:51;;;;;;;4.20;1.20;;;;;;;14.09;49.10;101136.09;3558571;40;20058;-65
2022/05/30 08:18:18;;;;;;;4.93;1.15;;;;;;;14.19;50.32;101142.56;3560881;40;20313;-65
2022/05/30 08:20:45;;;;;;;3.80;1.65;;;;;;;14.20;49.35;101148.81;3560628;40;20104;-65
2022/05/30 08:23:11;;;;;;;4.38;1.05;;;;;;;14.12;49.71;101136.72;3559976;40;20069;-66
2022/05/30 08:25:39;;;;;;;3.47;1.33;;;;;;;14.27;50.29;101151.00;3560541;40;20289;-65
2022/05/30 08:28:06;;;;;;;4.25;1.38;;;;;;;14.32;48.63;101142.53;3560657;40;20069;-65
2022/05/30 08:30:32;;;;;;;2.88;0.95;;;;;;;14.31;49.16;101147.09;3562909;40;20053;-65
2022/05/30 08:32:58;;;;;;;4.25;1.88;;;;;;;14.19;49.37;101147.13;3561638;40;20069;-65
2022/05/30 08:35:24;;;;;;;5.00;2.20;;;;;;;14.16;49.30;101140.94;3560555;40;20415;-65
2022/05/30 08:37:54;;;;;;;5.32;1.30;;;;;;;14.22;48.35;101147.75;3559701;40;20123;-65
2022/05/30 08:43:32;;;;;;;2.33;1.15;;;;;;;14.37;47.21;101152.06;3561138;40;20111;-66
2022/05/30 08:46:08;;;;;;;4.30;1.40;;;;;;;14.41;45.58;101155.41;3559650;40;20065;-64
2022/05/30 08:49:14;;;;;;;4.75;1.30;;;;;;;14.51;47.29;101152.91;3557452;40;20068;-64
2022/05/30 08:52:18;;;;;;;3.33;1.20;;;;;;;14.61;47.07;101157.53;3561854;40;20111;-65
2022/05/30 08:55:06;;;;;;;6.95;1.40;;;;;;;14.71;46.69;101162.25;3562347;40;20057;-64
2022/05/30 08:57:54;;;;;;;3.63;1.40;;;;;;;14.76;46.97;101146.56;3559844;40;20049;-65
2022/05/30 09:00:49;;;;;;;3.40;1.05;;;;;;;15.00;47.52;101158.28;3561604;40;20064;-65
2022/05/30 09:03:35;;;;;;;2.22;0.95;;;;;;;15.68;44.88;101156.69;3560809;40;20069;-65
2022/05/30 09:06:22;;;;;;;3.20;1.02;;;;;;;16.34;44.42;101158.75;3561488;40;20138;-65
2022/05/30 09:09:13;;;;;;;3.05;1.20;;;;;;;16.76;43.09;101164.38;3560218;40;20061;-65
2022/05/30 09:12:13;;;;;;;4.53;1.00;;;;;;;17.18;39.99;101162.66;3561058;40;20065;-64
2022/05/30 09:15:00;;;;;;;1.70;1.08;;;;;;;17.13;41.45;101151.31;3560871;40;20411;-63
2022/05/30 09:17:43;;;;;;;5.18;1.17;;;;;;;17.37;41.65;101157.38;3563290;40;20077;-64
2022/05/30 09:20:16;;;;;;;5.22;1.42;;;;;;;17.71;41.57;101140.88;3563086;40;20060;-64
2022/05/30 09:22:43;;;;;;;4.63;1.35;;;;;;;18.13;44.12;101159.91;3564107;40;20049;-66
2022/05/30 09:28:16;;;;;;;4.32;1.20;;;;;;;18.76;40.26;101148.84;3563220;40;20063;-64
2022/05/30 09:31:13;;;;;;;3.30;1.17;;;;;;;18.98;38.81;101147.75;3560457;40;20061;-65
2022/05/30 09:33:44;;;;;;;3.05;1.13;;;;;;;19.09;38.00;101154.91;3560305;40;20043;-64
2022/05/30 09:36:13;;;;;;;3.78;1.25;;;;;;;19.14;36.80;101148.03;3561332;40;20068;-64
2022/05/30 09:38:47;;;;;;;3.30;1.05;;;;;;;18.82;36.69;101155.59;3560703;40;20055;-65
2022/05/30 09:41:19;;;;;;;5.00;1.23;;;;;;;18.31;38.09;101150.13;3562143;40;20062;-64
2022/05/30 09:44:17;;;;;;;3.05;1.15;;;;;;;17.84;38.99;101155.16;3560130;40;20053;-65
2022/05/30 09:47:13;;;;;;;2.53;1.20;;;;;;;17.46;39.27;101157.59;3561527;40;20307;-65
2022/05/30 09:49:43;;;;;;;3.55;1.25;;;;;;;17.09;39.69;101155.28;3558108;40;20068;-65
2022/05/30 09:52:34;;;;;;;1.63;1.00;;;;;;;16.81;40.56;101160.31;3559272;40;20113;-64
2022/05/30 09:55:20;;;;;;;2.95;1.30;;;;;;;16.63;40.90;101131.94;3550248;40;20373;-65
2022/05/30 09:57:46;;;;;;;2.10;1.00;;;;;;;16.64;39.57;101147.22;3556261;40;20130;-65
2022/05/30 10:00:32;;;;;;;2.33;1.00;;;;;;;16.59;41.99;101157.63;3558447;40;20138;-65
2022/05/30 10:03:29;;;;;;;5.38;1.15;;;;;;;16.57;39.99;101155.00;3559434;40;20061;-65
2022/05/30 10:06:24;;;;;;;3.40;1.30;;;;;;;16.50;40.86;101151.06;3552087;40;20052;-65
2022/05/30 10:08:51;;;;;;;3.05;1.20;;;;;;;16.47;40.60;101154.91;3555869;40;20062;-65
2022/05/30 10:11:34;;;;;;;2.10;1.23;;;;;;;16.45;40.90;101146.00;3558424;40;21735;-65
2022/05/30 10:14:18;;;;;;;1.75;1.20;;;;;;;16.49;40.61;101152.03;3558373;40;20083;-65
2022/05/30 10:16:45;;;;;;;4.85;1.40;;;;;;;16.54;41.73;101151.69;3558286;40;20064;-65
2022/05/30 10:19:31;;;;;;;4.85;1.45;;;;;;;16.44;41.30;101154.28;3558148;40;20053;-64
2022/05/30 10:28:51;;;;;;;4.30;1.40;;;;;;;16.11;40.82;101164.16;3557310;40;20052;-64
2022/05/30 10:31:52;;;;;;;2.75;1.40;;;;;;;16.16;40.49;101125.81;3550469;40;20066;-64
2022/05/30 10:34:51;;;;;;;4.63;1.05;;;;;;;16.98;37.94;101155.31;3557178;40;20067;-64
2022/05/30 10:37:48;;;;;;;2.97;1.10;;;;;;;17.49;39.67;101158.19;3557883;40;20048;-65
2022/05/30 10:40:58;;;;;;;4.22;1.05;;;;;;;18.19;37.31;101158.50;3560534;40;20155;-64
2022/05/30 10:43:48;;;;;;;1.98;1.05;;;;;;;18.81;38.32;101162.91;3526675;40;20113;-64
2022/05/30 10:46:37;;;;;;;2.45;1.10;;;;;;;19.10;36.79;101162.97;3557732;40;20057;-65
2022/05/30 10:49:21;;;;;;;4.00;1.40;;;;;;;19.38;36.43;101161.25;3561587;40;20135;-65
2022/05/30 10:52:05;;;;;;;2.53;1.10;;;;;;;19.42;34.87;101118.19;3559637;40;20049;-65
2022/05/30 10:54:59;;;;;;;3.20;1.15;;;;;;;20.07;34.63;101162.88;3556682;40;20119;-65
2022/05/30 10:57:45;;;;;;;;;;;;;;;20.28;36.13;101162.66;3550442;40;20135;-65
2022/05/30 11:00:21;;;;;;;3.80;1.25;;;;;;;20.68;33.40;101160.63;3557159;40;19941;-65
2022/05/30 11:03:27;;;;;;;4.65;1.17;;;;;;;21.01;31.61;101157.25;3556408;40;20320;-65
2022/05/30 11:06:13;;;;;;;3.75;1.38;;;;;;;21.21;30.87;101155.22;3558593;40;20474;-65
2022/05/30 11:09:15;;;;;;;3.67;0.98;;;;;;;20.81;32.37;101158.41;3557433;40;20131;-65
2022/05/30 11:12:05;;;;;;;4.53;1.10;;;;;;;20.23;31.99;101166.84;3556523;40;20061;-65
2022/05/30 11:14:57;;;;;;;3.13;1.05;;;;;;;19.75;32.53;101156.94;3557318;40;20049;-65
2022/05/30 11:17:49;;;;;;;6.63;1.80;;;;;;;19.18;35.19;101164.97;3558029;40;20049;-65
2022/05/30 11:20:24;;;;;;;4.28;1.58;;;;;;;18.71;38.09;101161.97;3557540;40;20049;-65
2022/05/30 11:22:54;;;;;;;4.53;1.77;;;;;;;18.38;38.82;101165.91;3558706;40;20060;-65
2022/05/30 11:26:05;;;;;;;4.63;1.63;;;;;;;18.02;40.02;101168.16;3558968;40;20088;-64
2022/05/30 11:29:36;;;;;;;3.67;1.52;;;;;;;17.57;40.27;101160.25;3555909;40;20111;-64
2022/05/30 11:32:20;;;;;;;2.55;1.45;;;;;;;17.33;40.52;101164.06;3556443;40;20131;-64
2022/05/30 11:34:56;;;;;;;5.10;1.70;;;;;;;17.17;40.24;101179.94;3562021;40;20403;-65
2022/05/30 11:38:20;;;;;;;3.88;1.80;;;;;;;16.91;40.50;101180.28;3560722;40;20057;-64
2022/05/30 11:41:19;;;;;;;3.65;1.70;;;;;;;16.75;42.49;101173.50;3561231;40;20124;-64
2022/05/30 11:44:38;;;;;;;13.75;4.85;;;;;;;16.57;41.43;101170.44;3563261;40;21707;-64
2022/05/30 11:47:38;;;;;;;6.85;2.00;;;;;;;16.22;42.21;101134.31;3563146;40;20052;-64
2022/05/30 11:50:30;;;;;;;4.18;1.73;;;;;;;16.52;42.83;101165.38;3560634;40;20058;-65
2022/05/30 11:53:30;;;;;;;4.78;1.83;;;;;;;16.59;41.72;101165.75;3560867;40;20065;-64
2022/05/30 11:56:25;;;;;;;4.82;1.50;;;;;;;16.68;41.42;101165.88;3559839;40;20077;-64
2022/05/30 11:59:33;;;;;;;3.53;1.95;;;;;;;16.73;41.55;101168.19;3561612;40;20440;-64
2022/05/30 12:02:09;;;;;;;5.28;2.10;;;;;;;16.80;40.52;101166.72;3557590;40;20131;-65
2022/05/30 12:05:38;;;;;;;5.55;1.73;;;;;;;16.86;40.67;101160.78;3560976;40;20053;-64
2022/05/30 12:08:29;;;;;;;3.40;2.20;;;;;;;17.01;41.91;101165.94;3561412;40;20085;-65
2022/05/30 12:11:08;;;;;;;6.25;2.00;;;;;;;17.14;40.83;101170.19;3561397;40;20077;-65
2022/05/30 12:13:52;;;;;;;4.32;1.95;;;;;;;17.33;41.13;101168.66;3559448;40;20485;-64